createdAt,value
2017-06-12T04:46:11.012Z,18.9
2017-06-12T04:46:36.488Z,18.89
2017-06-12T04:47:01.956Z,18.96
2017-06-12T04:47:27.407Z,18.86
2017-06-12T04:47:52.877Z,18.93
2017-06-12T04:48:18.348Z,18.89
2017-06-12T04:48:43.817Z,18.99
2017-06-12T04:49:09.277Z,19
2017-06-12T04:49:34.721Z,18.99
2017-06-12T04:50:00.190Z,18.99
2017-06-12T04:50:25.630Z,19.02
2017-06-12T04:50:51.120Z,19.08
2017-06-12T04:51:16.615Z,19.11
2017-06-12T04:51:42.063Z,19.12
2017-06-12T04:52:07.505Z,19.12
2017-06-12T04:52:32.970Z,19.19
2017-06-12T04:52:58.437Z,19.26
2017-06-12T04:53:23.904Z,19.34
2017-06-12T04:53:49.350Z,19.31
2017-06-12T04:54:14.805Z,19.27
2017-06-12T04:54:40.278Z,19.3
2017-06-12T04:55:05.762Z,19.29
2017-06-12T04:55:31.194Z,19.27
2017-06-12T04:55:56.673Z,19.27
2017-06-12T04:56:22.115Z,19.37
2017-06-12T04:56:47.569Z,19.3
2017-06-12T04:57:13.045Z,19.41
2017-06-12T04:57:38.506Z,19.36
2017-06-12T04:58:03.979Z,19.41
2017-06-12T04:58:29.495Z,19.39
2017-06-12T04:58:55.005Z,19.48
2017-06-12T04:59:20.377Z,19.47
2017-06-12T04:59:45.822Z,19.48
2017-06-12T05:00:11.292Z,19.51
2017-06-12T05:00:36.778Z,19.51
2017-06-12T05:01:03.175Z,19.49
2017-06-12T05:01:28.642Z,19.49
2017-06-12T05:01:54.066Z,19.54
2017-06-12T05:02:19.545Z,19.55
2017-06-12T05:02:44.985Z,19.56
2017-06-12T05:03:10.458Z,19.73
2017-06-12T05:03:35.924Z,19.74
2017-06-12T05:04:01.392Z,19.84
2017-06-12T05:04:26.880Z,19.86
2017-06-12T05:04:52.309Z,19.88
2017-06-12T05:05:17.766Z,19.89
2017-06-12T05:05:43.250Z,19.86
2017-06-12T05:06:08.700Z,20
2017-06-12T05:06:34.166Z,20.03
2017-06-12T05:06:59.691Z,19.96
2017-06-12T05:07:25.095Z,20.02
2017-06-12T05:07:50.566Z,20.1
2017-06-12T05:08:16.056Z,20.04
2017-06-12T05:08:41.485Z,20.04
2017-06-12T05:09:06.931Z,20.04
2017-06-12T05:09:32.403Z,19.96
2017-06-12T05:09:57.875Z,20.03
2017-06-12T05:10:23.312Z,19.95
2017-06-12T05:10:48.795Z,19.99
2017-06-12T05:11:14.260Z,19.96
2017-06-12T05:11:39.688Z,19.94
2017-06-12T05:12:05.149Z,19.94
2017-06-12T05:12:30.619Z,19.84
2017-06-12T05:12:56.044Z,19.74
2017-06-12T05:13:21.521Z,19.74
2017-06-12T05:13:46.978Z,19.73
2017-06-12T05:14:12.435Z,19.73
2017-06-12T05:14:37.925Z,19.69
2017-06-12T05:15:03.363Z,19.71
2017-06-12T05:15:28.828Z,19.58
2017-06-12T05:15:54.278Z,19.66
2017-06-12T05:16:19.754Z,19.59
2017-06-12T05:16:45.238Z,19.59
2017-06-12T05:17:10.731Z,19.62
2017-06-12T05:17:36.148Z,19.64
2017-06-12T05:18:01.605Z,19.69
2017-06-12T05:18:27.062Z,19.73
2017-06-12T05:18:52.499Z,19.74
2017-06-12T05:19:17.978Z,19.77
2017-06-12T05:19:43.442Z,19.76
2017-06-12T05:20:08.925Z,19.76
2017-06-12T05:20:34.390Z,19.69
2017-06-12T05:20:59.855Z,19.73
2017-06-12T05:21:25.324Z,19.77
2017-06-12T05:21:50.792Z,19.79
2017-06-12T05:22:16.271Z,19.71
2017-06-12T05:22:41.744Z,19.7
2017-06-12T05:23:07.196Z,19.73
2017-06-12T05:23:32.672Z,19.73
2017-06-12T05:23:58.141Z,19.62
2017-06-12T05:24:23.610Z,19.73
2017-06-12T05:24:49.102Z,19.59
2017-06-12T05:25:14.546Z,19.58
2017-06-12T05:25:40.005Z,19.69
2017-06-12T05:26:05.488Z,19.76
2017-06-12T05:26:30.975Z,19.73
2017-06-12T05:26:56.448Z,19.85
2017-06-12T05:27:21.885Z,19.86
2017-06-12T05:27:47.357Z,19.82
2017-06-12T05:28:12.826Z,19.91
2017-06-12T05:28:38.320Z,19.95
2017-06-12T05:29:03.808Z,19.96
2017-06-12T05:29:29.260Z,20.06
2017-06-12T05:29:54.710Z,20.04
2017-06-12T05:30:20.160Z,20.11
2017-06-12T05:30:45.646Z,20.18
2017-06-12T05:31:11.492Z,20.14
2017-06-12T05:31:36.972Z,20.29
2017-06-12T05:32:02.422Z,20.24
2017-06-12T05:32:27.966Z,20.39
2017-06-12T05:32:53.429Z,20.39
2017-06-12T05:33:18.911Z,20.47
2017-06-12T05:33:44.382Z,20.48
2017-06-12T05:34:09.952Z,20.47
2017-06-12T05:34:35.887Z,20.55
2017-06-12T05:35:01.432Z,20.58
2017-06-12T05:35:26.903Z,20.66
2017-06-12T05:35:52.358Z,20.72
2017-06-12T05:36:17.836Z,20.66
2017-06-12T05:36:43.298Z,20.67
2017-06-12T05:37:08.752Z,20.72
2017-06-12T05:37:34.225Z,20.85
2017-06-12T05:37:59.679Z,20.78
2017-06-12T05:38:25.163Z,20.78
2017-06-12T05:38:50.626Z,20.78
2017-06-12T05:39:16.070Z,20.9
2017-06-12T05:39:41.542Z,20.95
2017-06-12T05:40:07.013Z,20.88
2017-06-12T05:40:32.674Z,21.03
2017-06-12T05:40:58.381Z,20.92
2017-06-12T05:41:23.827Z,21.03
2017-06-12T05:41:49.340Z,21.02
2017-06-12T05:42:14.811Z,21.14
2017-06-12T05:42:40.316Z,21.2
2017-06-12T05:43:05.760Z,21.2
2017-06-12T05:43:31.240Z,21.21
2017-06-12T05:43:56.676Z,21.24
2017-06-12T05:44:22.147Z,21.25
2017-06-12T05:44:47.634Z,21.29
2017-06-12T05:45:13.045Z,21.29
2017-06-12T05:45:38.503Z,21.21
2017-06-12T05:46:03.979Z,21.29
2017-06-12T05:46:29.506Z,21.3
2017-06-12T05:46:54.940Z,21.29
2017-06-12T05:47:20.349Z,21.33
2017-06-12T05:47:45.831Z,21.42
2017-06-12T05:48:11.327Z,21.4
2017-06-12T05:48:36.801Z,21.4
2017-06-12T05:49:02.243Z,21.37
2017-06-12T05:49:27.720Z,21.48
2017-06-12T05:49:53.200Z,21.45
2017-06-12T05:50:18.622Z,21.4
2017-06-12T05:50:44.103Z,21.48
2017-06-12T05:51:09.569Z,21.57
2017-06-12T05:51:35.037Z,21.58
2017-06-12T05:52:00.541Z,21.7
2017-06-12T05:52:25.974Z,21.7
2017-06-12T05:52:51.458Z,21.79
2017-06-12T05:53:16.862Z,21.85
2017-06-12T05:53:42.314Z,21.98
2017-06-12T05:54:07.815Z,21.93
2017-06-12T05:54:33.293Z,22.08
2017-06-12T05:54:58.761Z,22.04
2017-06-12T05:55:24.247Z,22.08
2017-06-12T05:55:49.701Z,22
2017-06-12T05:56:15.172Z,22.02
2017-06-12T05:56:40.634Z,22
2017-06-12T05:57:06.116Z,22
2017-06-12T05:57:31.563Z,22
2017-06-12T05:57:57.036Z,21.95
2017-06-12T05:58:22.507Z,22.04
2017-06-12T05:58:47.977Z,21.98
2017-06-12T05:59:13.450Z,21.95
2017-06-12T05:59:38.925Z,21.83
2017-06-12T06:00:04.372Z,21.88
2017-06-12T06:00:29.843Z,21.79
2017-06-12T06:00:55.333Z,21.64
2017-06-12T06:01:20.756Z,21.7
2017-06-12T06:01:46.277Z,21.7
2017-06-12T06:02:11.727Z,21.73
2017-06-12T06:02:37.194Z,21.64
2017-06-12T06:03:02.706Z,21.58
2017-06-12T06:03:28.194Z,21.61
2017-06-12T06:03:53.632Z,21.62
2017-06-12T06:04:19.110Z,21.6
2017-06-12T06:04:44.626Z,21.6
2017-06-12T06:05:10.199Z,21.57
2017-06-12T06:05:35.517Z,21.57
2017-06-12T06:06:01.006Z,21.62
2017-06-12T06:06:26.440Z,21.72
2017-06-12T06:06:51.898Z,21.67
2017-06-12T06:07:17.365Z,21.64
2017-06-12T06:07:42.844Z,21.75
2017-06-12T06:08:08.312Z,21.76
2017-06-12T06:08:33.785Z,21.67
2017-06-12T06:08:59.286Z,21.82
2017-06-12T06:09:24.753Z,21.79
2017-06-12T06:09:50.213Z,21.83
2017-06-12T06:10:15.717Z,21.89
2017-06-12T06:10:41.167Z,21.88
2017-06-12T06:11:06.592Z,21.96
2017-06-12T06:11:32.068Z,21.98
2017-06-12T06:11:57.559Z,21.96
2017-06-12T06:12:23.019Z,22.06
2017-06-12T06:12:48.457Z,21.98
2017-06-12T06:13:13.938Z,22.15
2017-06-12T06:13:39.380Z,22.15
2017-06-12T06:14:04.821Z,22.18
2017-06-12T06:14:30.306Z,22.22
2017-06-12T06:14:55.744Z,22.2
2017-06-12T06:15:21.217Z,22.29
2017-06-12T06:15:46.690Z,22.35
2017-06-12T06:16:12.174Z,22.39
2017-06-12T06:16:37.628Z,22.48
2017-06-12T06:17:03.097Z,22.47
2017-06-12T06:17:28.517Z,22.51
2017-06-12T06:17:54.010Z,22.6
2017-06-12T06:18:19.479Z,22.6
2017-06-12T06:18:44.978Z,22.69
2017-06-12T06:19:10.448Z,22.73
2017-06-12T06:19:35.915Z,22.69
2017-06-12T06:20:01.414Z,22.73
2017-06-12T06:20:26.893Z,22.73
2017-06-12T06:20:52.380Z,22.75
2017-06-12T06:21:17.856Z,22.75
2017-06-12T06:21:43.344Z,22.73
2017-06-12T06:22:08.800Z,22.8
2017-06-12T06:22:34.298Z,22.78
2017-06-12T06:22:59.781Z,22.81
2017-06-12T06:23:25.266Z,22.9
2017-06-12T06:23:50.751Z,22.84
2017-06-12T06:24:16.208Z,22.91
2017-06-12T06:24:41.684Z,22.99
2017-06-12T06:25:07.164Z,22.94
2017-06-12T06:25:32.637Z,22.96
2017-06-12T06:25:58.096Z,23.05
2017-06-12T06:26:23.574Z,23.03
2017-06-12T06:26:49.034Z,23.13
2017-06-12T06:27:14.510Z,23.09
2017-06-12T06:27:39.980Z,23.15
2017-06-12T06:28:05.432Z,23.18
2017-06-12T06:28:30.897Z,23.18
2017-06-12T06:28:56.354Z,23.24
2017-06-12T06:29:21.820Z,23.25
2017-06-12T06:29:47.283Z,23.31
2017-06-12T06:30:12.754Z,23.31
2017-06-12T06:30:38.233Z,23.25
2017-06-12T06:31:03.728Z,23.28
2017-06-12T06:31:29.211Z,23.32
2017-06-12T06:31:54.692Z,23.37
2017-06-12T06:32:20.172Z,23.34
2017-06-12T06:32:45.631Z,23.36
2017-06-12T06:33:11.097Z,23.41
2017-06-12T06:33:36.579Z,23.46
2017-06-12T06:34:02.040Z,23.46
2017-06-12T06:34:27.537Z,23.48
2017-06-12T06:34:53.024Z,23.47
2017-06-12T06:35:18.479Z,23.55
2017-06-12T06:35:43.975Z,23.44
2017-06-12T06:36:09.442Z,23.48
2017-06-12T06:36:34.960Z,23.51
2017-06-12T06:37:00.495Z,23.47
2017-06-12T06:37:26.027Z,23.51
2017-06-12T06:37:51.520Z,23.54
2017-06-12T06:38:16.988Z,23.56
2017-06-12T06:38:42.452Z,23.58
2017-06-12T06:39:07.939Z,23.66
2017-06-12T06:39:33.391Z,23.65
2017-06-12T06:39:58.865Z,23.76
2017-06-12T06:40:24.332Z,23.71
2017-06-12T06:40:49.843Z,23.78
2017-06-12T06:41:15.304Z,23.87
2017-06-12T06:41:40.775Z,23.84
2017-06-12T06:42:06.274Z,23.84
2017-06-12T06:42:31.758Z,23.88
2017-06-12T06:42:57.196Z,23.88
2017-06-12T06:43:22.686Z,23.83
2017-06-12T06:43:48.134Z,23.86
2017-06-12T06:44:13.622Z,23.83
2017-06-12T06:44:39.126Z,23.87
2017-06-12T06:45:04.579Z,23.81
2017-06-12T06:45:30.057Z,23.87
2017-06-12T06:45:55.514Z,23.87
2017-06-12T06:46:21.001Z,23.83
2017-06-12T06:46:46.487Z,23.93
2017-06-12T06:47:11.930Z,23.88
2017-06-12T06:47:37.414Z,23.86
2017-06-12T06:48:02.909Z,23.88
2017-06-12T06:48:28.375Z,23.84
2017-06-12T06:48:53.847Z,23.87
2017-06-12T06:49:19.545Z,23.87
2017-06-12T06:49:45.029Z,23.88
2017-06-12T06:50:10.526Z,23.81
2017-06-12T06:50:36.026Z,23.84
2017-06-12T06:51:01.516Z,23.92
2017-06-12T06:51:27.005Z,23.8
2017-06-12T06:51:52.610Z,23.8
2017-06-12T06:52:18.085Z,23.91
2017-06-12T06:52:43.557Z,23.81
2017-06-12T06:53:09.028Z,23.87
2017-06-12T06:53:34.510Z,23.95
2017-06-12T06:54:00.102Z,23.95
2017-06-12T06:54:25.584Z,23.95
2017-06-12T06:54:51.076Z,23.98
2017-06-12T06:55:16.558Z,23.98
2017-06-12T06:55:42.036Z,23.96
2017-06-12T06:56:07.512Z,23.99
2017-06-12T06:56:33.023Z,23.98
2017-06-12T06:56:58.525Z,23.99
2017-06-12T06:57:23.991Z,23.96
2017-06-12T06:57:49.473Z,23.92
2017-06-12T06:58:14.966Z,23.84
2017-06-12T06:58:40.457Z,23.81
2017-06-12T06:59:05.945Z,23.87
2017-06-12T06:59:31.461Z,23.86
2017-06-12T06:59:56.921Z,23.81
2017-06-12T07:00:22.416Z,23.77
2017-06-12T07:00:47.883Z,23.71
2017-06-12T07:01:13.363Z,23.73
2017-06-12T07:01:38.844Z,23.74
2017-06-12T07:02:04.333Z,23.71
2017-06-12T07:02:29.806Z,23.65
2017-06-12T07:02:55.294Z,23.74
2017-06-12T07:03:20.791Z,23.71
2017-06-12T07:03:46.237Z,23.77
2017-06-12T07:04:34.561Z,23.83
2017-06-12T07:05:00.043Z,23.77
2017-06-12T07:05:25.524Z,23.74
2017-06-12T07:05:50.995Z,23.69
2017-06-12T07:06:16.461Z,23.78
2017-06-12T07:06:41.946Z,23.83
2017-06-12T07:07:07.423Z,23.84
2017-06-12T07:07:32.906Z,23.83
2017-06-12T07:07:58.382Z,23.8
2017-06-12T07:08:23.870Z,23.84
2017-06-12T07:08:49.322Z,23.84
2017-06-12T07:09:14.804Z,23.84
2017-06-12T07:09:40.279Z,23.86
2017-06-12T07:10:05.748Z,23.71
2017-06-12T07:10:31.227Z,23.81
2017-06-12T07:10:56.710Z,23.74
2017-06-12T07:11:22.191Z,23.83
2017-06-12T07:11:47.681Z,23.84
2017-06-12T07:12:13.158Z,23.88
2017-06-12T07:12:38.662Z,23.88
2017-06-12T07:13:04.136Z,23.88
2017-06-12T07:13:29.588Z,23.86
2017-06-12T07:13:55.094Z,23.87
2017-06-12T07:14:20.588Z,24.01
2017-06-12T07:14:46.058Z,23.96
2017-06-12T07:15:11.545Z,23.87
2017-06-12T07:15:37.016Z,23.88
2017-06-12T07:16:02.478Z,23.88
2017-06-12T07:16:27.959Z,23.84
2017-06-12T07:16:53.419Z,23.84
2017-06-12T07:17:18.892Z,23.87
2017-06-12T07:17:44.366Z,23.84
2017-06-12T07:18:09.846Z,23.84
2017-06-12T07:18:35.323Z,23.8
2017-06-12T07:19:00.835Z,23.74
2017-06-12T07:19:26.315Z,23.81
2017-06-12T07:19:51.795Z,23.74
2017-06-12T07:20:17.249Z,23.69
2017-06-12T07:20:42.745Z,23.68
2017-06-12T07:21:08.211Z,23.68
2017-06-12T07:21:33.718Z,23.63
2017-06-12T07:21:59.167Z,23.59
2017-06-12T07:22:24.627Z,23.63
2017-06-12T07:22:50.101Z,23.59
2017-06-12T07:23:15.590Z,23.61
2017-06-12T07:23:41.057Z,23.58
2017-06-12T07:24:06.529Z,23.54
2017-06-12T07:24:32.007Z,23.5
2017-06-12T07:24:57.476Z,23.48
2017-06-12T07:25:23.057Z,23.55
2017-06-12T07:25:48.513Z,23.41
2017-06-12T07:26:13.994Z,23.44
2017-06-12T07:26:39.463Z,23.43
2017-06-12T07:27:04.930Z,23.43
2017-06-12T07:27:30.441Z,23.4
2017-06-12T07:27:55.936Z,23.39
2017-06-12T07:28:21.395Z,23.39
2017-06-12T07:28:46.885Z,23.28
2017-06-12T07:29:12.325Z,23.34
2017-06-12T07:29:37.801Z,23.28
2017-06-12T07:30:03.292Z,23.31
2017-06-12T07:30:28.770Z,23.21
2017-06-12T07:30:54.231Z,23.18
2017-06-12T07:31:19.728Z,23.15
2017-06-12T07:31:45.214Z,23.06
2017-06-12T07:32:10.677Z,23.13
2017-06-12T07:32:36.170Z,23.15
2017-06-12T07:33:01.639Z,23.03
2017-06-12T07:33:27.133Z,23
2017-06-12T07:33:52.602Z,23.03
2017-06-12T07:34:18.144Z,23
2017-06-12T07:34:43.602Z,23.03
2017-06-12T07:35:09.057Z,23
2017-06-12T07:35:34.522Z,22.96
2017-06-12T07:35:59.990Z,22.96
2017-06-12T07:36:25.452Z,22.93
2017-06-12T07:36:50.937Z,23.03
2017-06-12T07:37:16.387Z,22.94
2017-06-12T07:37:41.874Z,23
2017-06-12T07:38:07.323Z,23.05
2017-06-12T07:38:32.772Z,23.12
2017-06-12T07:38:58.263Z,23.12
2017-06-12T07:39:23.702Z,23.08
2017-06-12T07:39:49.200Z,23.08
2017-06-12T07:40:14.671Z,23.09
2017-06-12T07:40:40.139Z,23.13
2017-06-12T07:41:05.655Z,23.03
2017-06-12T07:41:31.126Z,22.96
2017-06-12T07:41:56.579Z,23.02
2017-06-12T07:42:22.045Z,23.02
2017-06-12T07:42:47.541Z,22.98
2017-06-12T07:43:12.984Z,22.94
2017-06-12T07:43:38.436Z,22.9
2017-06-12T07:44:03.935Z,22.83
2017-06-12T07:44:29.394Z,22.83
2017-06-12T07:44:54.856Z,22.72
2017-06-12T07:45:20.345Z,22.72
2017-06-12T07:45:45.837Z,22.63
2017-06-12T07:46:11.306Z,22.63
2017-06-12T07:46:36.775Z,22.55
2017-06-12T07:47:02.247Z,22.59
2017-06-12T07:47:27.708Z,22.5
2017-06-12T07:47:53.204Z,22.45
2017-06-12T07:48:18.693Z,22.43
2017-06-12T07:48:44.158Z,22.36
2017-06-12T07:49:09.651Z,22.5
2017-06-12T07:49:35.130Z,22.38
2017-06-12T07:50:00.613Z,22.51
2017-06-12T07:50:26.129Z,22.48
2017-06-12T07:50:51.607Z,22.51
2017-06-12T07:51:17.067Z,22.47
2017-06-12T07:51:42.551Z,22.5
2017-06-12T07:52:08.002Z,22.54
2017-06-12T07:52:33.474Z,22.62
2017-06-12T07:52:58.936Z,22.57
2017-06-12T07:53:24.429Z,22.63
2017-06-12T07:53:49.905Z,22.72
2017-06-12T07:54:15.418Z,22.75
2017-06-12T07:54:40.876Z,22.75
2017-06-12T07:55:06.347Z,22.68
2017-06-12T07:55:31.863Z,22.87
2017-06-12T07:55:57.287Z,22.84
2017-06-12T07:56:22.768Z,22.87
2017-06-12T07:56:48.252Z,22.83
2017-06-12T07:57:13.735Z,22.81
2017-06-12T07:58:22.455Z,22.88
2017-06-12T07:58:47.932Z,22.9
2017-06-12T07:59:13.401Z,22.91
2017-06-12T07:59:38.883Z,22.91
2017-06-12T08:00:04.363Z,22.88
2017-06-12T08:00:29.821Z,22.83
2017-06-12T08:00:55.248Z,22.84
2017-06-12T08:01:20.745Z,22.83
2017-06-12T08:01:46.232Z,22.83
2017-06-12T08:02:11.722Z,22.8
2017-06-12T08:02:37.239Z,22.81
2017-06-12T08:03:02.668Z,22.8
2017-06-12T08:03:28.105Z,22.75
2017-06-12T08:03:53.581Z,22.75
2017-06-12T08:04:19.045Z,22.8
2017-06-12T08:04:44.554Z,22.83
2017-06-12T08:05:10.029Z,22.81
2017-06-12T08:05:35.489Z,22.78
2017-06-12T08:06:00.962Z,22.78
2017-06-12T08:06:26.418Z,22.78
2017-06-12T08:06:51.893Z,22.85
2017-06-12T08:07:17.361Z,22.81
2017-06-12T08:07:42.878Z,22.85
2017-06-12T08:08:08.356Z,22.87
2017-06-12T08:08:33.836Z,22.87
2017-06-12T08:08:59.324Z,22.85
2017-06-12T08:09:24.795Z,22.87
2017-06-12T08:09:50.297Z,22.93
2017-06-12T08:10:15.773Z,22.94
2017-06-12T08:10:41.293Z,22.98
2017-06-12T08:11:06.759Z,22.98
2017-06-12T08:11:32.284Z,22.96
2017-06-12T08:11:57.766Z,23.08
2017-06-12T08:12:23.224Z,23.06
2017-06-12T08:12:48.699Z,23.06
2017-06-12T08:13:14.191Z,23.12
2017-06-12T08:13:39.658Z,23.05
2017-06-12T08:14:05.130Z,23.09
2017-06-12T08:14:30.582Z,23.09
2017-06-12T08:14:56.083Z,23.13
2017-06-12T08:15:21.568Z,23.09
2017-06-12T08:15:47.039Z,22.98
2017-06-12T08:16:12.517Z,22.93
2017-06-12T08:16:37.965Z,22.98
2017-06-12T08:17:03.464Z,23.08
2017-06-12T08:17:28.920Z,22.99
2017-06-12T08:17:54.414Z,22.98
2017-06-12T08:18:19.885Z,22.96
2017-06-12T08:18:45.347Z,22.98
2017-06-12T08:19:10.801Z,22.93
2017-06-12T08:19:36.266Z,22.93
2017-06-12T08:20:01.709Z,22.91
2017-06-12T08:20:27.189Z,22.88
2017-06-12T08:20:52.639Z,22.85
2017-06-12T08:21:18.098Z,22.8
2017-06-12T08:21:43.608Z,22.87
2017-06-12T08:22:09.080Z,22.83
2017-06-12T08:22:34.590Z,22.8
2017-06-12T08:23:00.094Z,22.83
2017-06-12T08:23:25.609Z,22.78
2017-06-12T08:23:51.065Z,22.78
2017-06-12T08:24:16.540Z,22.83
2017-06-12T08:24:42.025Z,22.72
2017-06-12T08:25:07.519Z,22.69
2017-06-12T08:25:32.979Z,22.68
2017-06-12T08:25:58.476Z,22.7
2017-06-12T08:26:23.970Z,22.7
2017-06-12T08:26:49.428Z,22.7
2017-06-12T08:27:14.912Z,22.6
2017-06-12T08:27:40.373Z,22.72
2017-06-12T08:28:05.828Z,22.75
2017-06-12T08:28:31.295Z,22.69
2017-06-12T08:28:56.786Z,22.62
2017-06-12T08:29:22.240Z,22.73
2017-06-12T08:29:47.741Z,22.65
2017-06-12T08:30:13.195Z,22.69
2017-06-12T08:30:38.640Z,22.68
2017-06-12T08:31:04.177Z,22.66
2017-06-12T08:31:29.679Z,22.65
2017-06-12T08:31:55.209Z,22.63
2017-06-12T08:32:20.727Z,22.57
2017-06-12T08:32:46.190Z,22.51
2017-06-12T08:33:11.712Z,22.48
2017-06-12T08:33:37.182Z,22.45
2017-06-12T08:34:02.663Z,22.36
2017-06-12T08:34:28.135Z,22.36
2017-06-12T08:34:53.602Z,22.33
2017-06-12T08:35:19.113Z,22.38
2017-06-12T08:35:44.613Z,22.32
2017-06-12T08:36:10.095Z,22.29
2017-06-12T08:36:35.586Z,22.18
2017-06-12T08:37:01.055Z,22.26
2017-06-12T08:37:26.540Z,22.25
2017-06-12T08:37:51.989Z,22.29
2017-06-12T08:38:17.497Z,22.14
2017-06-12T08:38:42.956Z,22.22
2017-06-12T08:39:08.436Z,22.17
2017-06-12T08:39:33.916Z,22.28
2017-06-12T08:39:59.367Z,22.22
2017-06-12T08:40:24.829Z,22.26
2017-06-12T08:40:50.291Z,22.28
2017-06-12T08:41:15.777Z,22.32
2017-06-12T08:41:41.221Z,22.32
2017-06-12T08:42:06.725Z,22.35
2017-06-12T08:42:32.198Z,22.39
2017-06-12T08:42:57.675Z,22.39
2017-06-12T08:43:23.193Z,22.39
2017-06-12T08:43:48.654Z,22.41
2017-06-12T08:44:14.134Z,22.33
2017-06-12T08:44:39.626Z,22.43
2017-06-12T08:45:05.085Z,22.39
2017-06-12T08:45:30.575Z,22.38
2017-06-12T08:45:56.052Z,22.36
2017-06-12T08:46:21.516Z,22.33
2017-06-12T08:46:46.979Z,22.35
2017-06-12T08:47:12.456Z,22.35
2017-06-12T08:47:37.911Z,22.29
2017-06-12T08:48:03.403Z,22.29
2017-06-12T08:48:28.876Z,22.2
2017-06-12T08:48:54.337Z,22.26
2017-06-12T08:49:19.839Z,22.28
2017-06-12T08:49:45.317Z,22.18
2017-06-12T08:50:10.817Z,22.15
2017-06-12T08:50:36.300Z,22.22
2017-06-12T08:51:39.890Z,22.22
2017-06-12T08:52:05.367Z,22.28
2017-06-12T08:52:30.843Z,22.38
2017-06-12T08:52:56.313Z,22.39
2017-06-12T08:53:21.811Z,22.55
2017-06-12T08:53:47.271Z,22.62
2017-06-12T08:54:12.769Z,22.73
2017-06-12T08:54:38.258Z,22.85
2017-06-12T08:55:03.716Z,22.98
2017-06-12T08:55:29.180Z,23.15
2017-06-12T08:55:54.644Z,23.27
2017-06-12T08:56:20.129Z,23.36
2017-06-12T08:56:45.600Z,23.46
2017-06-12T08:57:11.065Z,23.47
2017-06-12T08:57:36.559Z,23.58
2017-06-12T08:58:02.050Z,23.69
2017-06-12T08:58:27.512Z,23.73
2017-06-12T08:58:52.985Z,23.77
2017-06-12T08:59:18.476Z,23.73
2017-06-12T08:59:43.921Z,23.66
2017-06-12T09:00:09.468Z,23.69
2017-06-12T09:00:34.959Z,23.71
2017-06-12T09:01:00.445Z,23.69
2017-06-12T09:01:58.983Z,23.68
2017-06-12T09:02:24.457Z,23.71
2017-06-12T09:02:49.942Z,23.68
2017-06-12T09:03:15.446Z,23.63
2017-06-12T09:03:40.901Z,23.58
2017-06-12T09:04:06.386Z,23.59
2017-06-12T09:04:31.836Z,23.61
2017-06-12T09:04:57.313Z,23.61
2017-06-12T09:05:22.799Z,23.55
2017-06-12T09:05:48.255Z,23.51
2017-06-12T09:06:13.729Z,23.5
2017-06-12T09:06:39.210Z,23.41
2017-06-12T09:07:04.692Z,23.43
2017-06-12T09:07:30.147Z,23.4
2017-06-12T09:07:55.626Z,23.39
2017-06-12T09:08:21.102Z,23.32
2017-06-12T09:08:46.573Z,23.37
2017-06-12T09:09:12.055Z,23.27
2017-06-12T09:09:37.521Z,23.31
2017-06-12T09:10:02.981Z,23.31
2017-06-12T09:10:28.455Z,23.18
2017-06-12T09:10:53.926Z,23.13
2017-06-12T09:11:19.430Z,23.17
2017-06-12T09:11:44.871Z,23.05
2017-06-12T09:12:10.346Z,22.94
2017-06-12T09:12:35.837Z,22.91
2017-06-12T09:13:01.329Z,22.98
2017-06-12T09:13:26.833Z,22.87
2017-06-12T09:13:52.315Z,22.85
2017-06-12T09:14:17.805Z,22.84
2017-06-12T09:14:43.279Z,22.76
2017-06-12T09:15:08.744Z,22.78
2017-06-12T09:15:34.225Z,22.7
2017-06-12T09:15:59.660Z,22.69
2017-06-12T09:16:25.156Z,22.6
2017-06-12T09:16:50.639Z,22.57
2017-06-12T09:17:16.115Z,22.63
2017-06-12T09:17:41.555Z,22.57
2017-06-12T09:18:07.050Z,22.57
2017-06-12T09:18:32.528Z,22.62
2017-06-12T09:18:58.018Z,22.54
2017-06-12T09:19:23.521Z,22.55
2017-06-12T09:19:48.987Z,22.55
2017-06-12T09:20:14.482Z,22.59
2017-06-12T09:20:39.961Z,22.54
2017-06-12T09:21:05.444Z,22.6
2017-06-12T09:21:30.943Z,22.63
2017-06-12T09:21:56.408Z,22.62
2017-06-12T09:22:21.900Z,22.7
2017-06-12T09:22:47.340Z,22.72
2017-06-12T09:23:12.821Z,22.72
2017-06-12T09:23:38.316Z,22.7
2017-06-12T09:24:03.786Z,22.72
2017-06-12T09:24:29.248Z,22.7
2017-06-12T09:24:54.746Z,22.7
2017-06-12T09:25:20.220Z,22.72
2017-06-12T09:25:45.697Z,22.68
2017-06-12T09:26:11.173Z,22.63
2017-06-12T09:26:36.648Z,22.62
2017-06-12T09:27:02.137Z,22.53
2017-06-12T09:27:27.608Z,22.57
2017-06-12T09:27:53.095Z,22.48
2017-06-12T09:28:18.596Z,22.6
2017-06-12T09:28:44.077Z,22.63
2017-06-12T09:29:09.556Z,22.51
2017-06-12T09:29:35.003Z,22.53
2017-06-12T09:30:00.484Z,22.5
2017-06-12T09:30:25.916Z,22.5
2017-06-12T09:30:51.410Z,22.54
2017-06-12T09:31:16.892Z,22.5
2017-06-12T09:31:42.391Z,22.55
2017-06-12T09:32:07.859Z,22.54
2017-06-12T09:32:33.316Z,22.51
2017-06-12T09:32:58.782Z,22.57
2017-06-12T09:33:24.293Z,22.63
2017-06-12T09:33:49.781Z,22.6
2017-06-12T09:34:15.279Z,22.63
2017-06-12T09:34:40.780Z,22.55
2017-06-12T09:35:06.262Z,22.55
2017-06-12T09:35:31.743Z,22.6
2017-06-12T09:35:57.222Z,22.5
2017-06-12T09:36:22.708Z,22.54
2017-06-12T09:36:48.180Z,22.6
2017-06-12T09:37:13.714Z,22.66
2017-06-12T09:37:39.170Z,22.72
2017-06-12T09:38:04.715Z,22.72
2017-06-12T09:38:30.194Z,22.75
2017-06-12T09:38:55.719Z,22.84
2017-06-12T09:39:21.219Z,22.84
2017-06-12T09:39:46.712Z,22.76
2017-06-12T09:40:12.169Z,22.85
2017-06-12T09:40:37.679Z,22.9
2017-06-12T09:41:03.185Z,22.91
2017-06-12T09:41:28.682Z,22.98
2017-06-12T09:41:54.159Z,22.96
2017-06-12T09:42:19.645Z,23.02
2017-06-12T09:42:45.114Z,23.12
2017-06-12T09:43:10.624Z,23.15
2017-06-12T09:43:36.158Z,23.17
2017-06-12T09:44:01.672Z,23.15
2017-06-12T09:44:27.117Z,23.18
2017-06-12T09:44:52.615Z,23.18
2017-06-12T09:45:18.123Z,23.15
2017-06-12T09:45:43.587Z,23.17
2017-06-12T09:46:09.033Z,23.15
2017-06-12T09:46:34.465Z,23.13
2017-06-12T09:46:59.943Z,23.23
2017-06-12T09:47:25.408Z,23.21
2017-06-12T09:47:50.893Z,23.2
2017-06-12T09:48:16.354Z,23.23
2017-06-12T09:48:41.829Z,23.28
2017-06-12T09:49:07.308Z,23.28
2017-06-12T09:49:32.750Z,23.28
2017-06-12T09:49:58.241Z,23.31
2017-06-12T09:50:23.711Z,23.2
2017-06-12T09:50:49.212Z,23.24
2017-06-12T09:51:14.663Z,23.2
2017-06-12T09:51:40.128Z,23.18
2017-06-12T09:52:05.585Z,23.2
2017-06-12T09:52:31.075Z,23.24
2017-06-12T09:52:56.572Z,23.21
2017-06-12T09:53:22.035Z,23.09
2017-06-12T09:53:47.509Z,23.03
2017-06-12T09:54:12.964Z,23.03
2017-06-12T09:54:38.463Z,22.98
2017-06-12T09:55:03.890Z,22.99
2017-06-12T09:55:29.355Z,22.98
2017-06-12T09:55:54.848Z,22.98
2017-06-12T09:56:20.315Z,22.94
2017-06-12T09:56:45.857Z,22.87
2017-06-12T09:57:11.307Z,22.91
2017-06-12T09:57:36.778Z,22.85
2017-06-12T09:58:02.280Z,22.88
2017-06-12T09:58:27.729Z,22.81
2017-06-12T09:58:53.223Z,22.78
2017-06-12T09:59:18.729Z,22.73
2017-06-12T09:59:44.241Z,22.75
2017-06-12T10:00:09.756Z,22.73
2017-06-12T10:00:35.241Z,22.59
2017-06-12T10:01:00.713Z,22.65
2017-06-12T10:01:26.200Z,22.7
2017-06-12T10:01:51.681Z,22.7
2017-06-12T10:02:17.141Z,22.66
2017-06-12T10:02:42.609Z,22.65
2017-06-12T10:03:08.106Z,22.7
2017-06-12T10:03:33.580Z,22.7
2017-06-12T10:03:59.057Z,22.69
2017-06-12T10:04:24.509Z,22.73
2017-06-12T10:04:49.996Z,22.7
2017-06-12T10:05:15.466Z,22.76
2017-06-12T10:05:40.928Z,22.73
2017-06-12T10:06:06.424Z,22.76
2017-06-12T10:06:31.887Z,22.69
2017-06-12T10:06:57.389Z,22.8
2017-06-12T10:07:22.844Z,22.69
2017-06-12T10:07:48.312Z,22.76
2017-06-12T10:08:13.816Z,22.69
2017-06-12T10:08:39.303Z,22.72
2017-06-12T10:09:04.770Z,22.72
2017-06-12T10:09:30.210Z,22.66
2017-06-12T10:09:55.682Z,22.62
2017-06-12T10:10:21.125Z,22.59
2017-06-12T10:10:46.621Z,22.6
2017-06-12T10:11:12.117Z,22.6
2017-06-12T10:11:37.587Z,22.65
2017-06-12T10:12:03.052Z,22.63
2017-06-12T10:12:28.502Z,22.65
2017-06-12T10:12:53.986Z,22.68
2017-06-12T10:13:19.462Z,22.63
2017-06-12T10:13:44.948Z,22.65
2017-06-12T10:14:10.417Z,22.63
2017-06-12T10:14:35.927Z,22.62
2017-06-12T10:15:01.372Z,22.65
2017-06-12T10:15:26.881Z,22.57
2017-06-12T10:15:52.356Z,22.6
2017-06-12T10:16:17.857Z,22.72
2017-06-12T10:16:43.328Z,22.62
2017-06-12T10:17:08.831Z,22.7
2017-06-12T10:17:34.330Z,22.75
2017-06-12T10:17:59.833Z,22.7